Time;durP1;ratioP1;P1;durP2;ratioP2;P2;SDS_P1;SDS_P2;PMS_P1;PMS_P2;Temp;Humidity;BMP_temperature;BMP_pressure;BME280_temperature;BME280_humidity;BME280_pressure;Samples;Min_cycle;Max_cycle;Signal;HPM_P1;HPM_P2
2022/09/08 00:00:55;;;;;;;6.93;6.30;;;17.70;99.90;;;;;;5013116;28;20446;-56
2022/09/08 00:03:26;;;;;;;7.20;5.67;;;17.70;99.90;;;;;;5013093;28;20818;-56
2022/09/08 00:05:57;;;;;;;8.80;6.57;;;17.60;99.90;;;;;;5013130;28;20494;-56
2022/09/08 00:08:27;;;;;;;5.70;5.10;;;17.50;99.90;;;;;;5013418;28;20431;-56
2022/09/08 00:10:57;;;;;;;8.07;6.93;;;17.50;99.90;;;;;;5013053;28;20450;-56
2022/09/08 00:13:26;;;;;;;7.37;6.07;;;17.50;99.90;;;;;;5012982;28;20945;-56
2022/09/08 00:15:54;;;;;;;7.20;6.50;;;17.50;99.90;;;;;;5012756;28;20860;-56
2022/09/08 00:18:22;;;;;;;8.20;7.40;;;17.40;99.90;;;;;;5012772;28;20914;-56
2022/09/08 00:20:50;;;;;;;7.30;6.60;;;17.40;99.90;;;;;;5012882;28;20446;-56
2022/09/08 00:23:17;;;;;;;7.40;6.80;;;17.40;99.90;;;;;;5013083;28;20456;-56
2022/09/08 00:25:46;;;;;;;7.70;6.43;;;17.30;99.90;;;;;;5014561;28;20832;-56
2022/09/08 00:28:14;;;;;;;7.73;6.30;;;17.30;99.90;;;;;;5017192;28;20452;-56
2022/09/08 00:30:41;;;;;;;8.37;7.57;;;17.30;99.90;;;;;;5017101;28;20445;-56
2022/09/08 00:33:08;;;;;;;7.47;6.80;;;17.30;99.90;;;;;;5016595;28;20811;-56
2022/09/08 00:35:35;;;;;;;7.37;6.77;;;17.30;99.90;;;;;;5016471;28;20491;-55
2022/09/08 00:38:03;;;;;;;8.03;7.13;;;17.20;99.90;;;;;;5016801;28;20450;-56
2022/09/08 00:40:30;;;;;;;8.00;7.00;;;17.20;99.90;;;;;;5016984;28;20453;-56
2022/09/08 00:43:04;;;;;;;7.40;6.60;;;17.20;99.90;;;;;;5016781;28;20824;-56
2022/09/08 00:45:37;;;;;;;9.77;7.27;;;17.20;99.90;;;;;;5016659;28;21011;-56
2022/09/08 00:48:08;;;;;;;7.97;7.00;;;17.10;99.90;;;;;;5016679;28;20440;-56
2022/09/08 00:50:36;;;;;;;8.37;7.30;;;17.10;99.90;;;;;;5016771;28;20456;-56
2022/09/08 00:53:08;;;;;;;8.20;7.20;;;17.10;99.90;;;;;;5016632;28;20446;-56
2022/09/08 00:55:39;;;;;;;8.37;7.10;;;17.10;99.90;;;;;;5016133;28;20496;-56
2022/09/08 00:58:08;;;;;;;8.13;7.33;;;17.10;99.90;;;;;;5016302;28;20922;-56
2022/09/08 01:00:37;;;;;;;6.80;6.13;;;17.10;99.90;;;;;;5016692;28;20445;-56
2022/09/08 01:03:08;;;;;;;11.10;7.60;;;17.10;99.90;;;;;;5016621;28;20478;-55
2022/09/08 01:05:44;;;;;;;7.50;6.80;;;17.00;99.90;;;;;;5016762;28;20454;-56
2022/09/08 01:14:05;;;;;;;8.87;7.97;;;17.00;99.90;;;;;;5016321;28;20406;-56
2022/09/08 01:16:39;;;;;;;8.87;8.07;;;17.00;99.90;;;;;;5016411;28;20489;-56
2022/09/08 01:19:10;;;;;;;8.43;7.00;;;17.00;99.90;;;;;;5016584;28;20802;-56
2022/09/08 01:22:01;;;;;;;9.10;7.73;;;16.90;99.90;;;;;;5016451;28;20434;-56
2022/09/08 01:24:41;;;;;;;11.60;7.87;;;16.90;99.90;;;;;;5016294;28;20437;-56
2022/09/08 01:27:21;;;;;;;9.70;8.13;;;16.90;99.90;;;;;;5015887;28;20440;-56
2022/09/08 01:29:50;;;;;;;7.60;7.00;;;16.80;99.90;;;;;;5016548;28;20500;-56
2022/09/08 01:32:18;;;;;;;7.83;7.13;;;16.80;99.90;;;;;;5016062;28;20453;-56
2022/09/08 01:34:46;;;;;;;8.57;7.67;;;16.80;99.90;;;;;;5015504;28;20511;-56
2022/09/08 01:37:13;;;;;;;10.53;9.57;;;16.70;99.90;;;;;;5015103;28;20446;-56
2022/09/08 01:39:40;;;;;;;8.80;8.00;;;16.70;99.90;;;;;;5016240;28;20882;-56
2022/09/08 01:42:08;;;;;;;9.50;8.60;;;16.70;99.90;;;;;;5015697;28;20472;-56
2022/09/08 01:44:36;;;;;;;9.37;8.47;;;16.60;99.90;;;;;;5015245;28;20450;-56
2022/09/08 01:47:04;;;;;;;10.27;9.20;;;16.70;99.90;;;;;;5015359;28;20454;-56
2022/09/08 01:49:31;;;;;;;11.33;9.33;;;16.60;99.90;;;;;;5015265;28;20877;-56
2022/09/08 01:51:59;;;;;;;11.73;8.73;;;16.60;99.90;;;;;;5015581;28;20454;-56
2022/09/08 01:54:28;;;;;;;10.23;9.10;;;16.60;99.90;;;;;;5015619;28;20442;-56
2022/09/08 01:56:55;;;;;;;9.63;8.83;;;16.60;99.90;;;;;;5015113;28;20505;-56
2022/09/08 01:59:22;;;;;;;10.10;9.03;;;16.60;99.90;;;;;;5015395;28;20446;-56
2022/09/08 02:01:51;;;;;;;9.30;8.50;;;16.60;99.90;;;;;;5014890;28;20849;-56
2022/09/08 02:04:18;;;;;;;12.03;9.50;;;16.50;99.90;;;;;;5015006;28;20446;-56
2022/09/08 02:06:46;;;;;;;12.00;10.80;;;16.50;99.90;;;;;;5014884;28;20461;-56
2022/09/08 02:09:14;;;;;;;10.90;9.90;;;16.50;99.90;;;;;;5015365;28;20451;-56
2022/09/08 02:11:41;;;;;;;11.03;9.93;;;16.50;99.90;;;;;;5014945;28;20934;-56
2022/09/08 02:14:08;;;;;;;11.13;10.13;;;16.40;99.90;;;;;;5014840;28;20449;-56
2022/09/08 02:16:36;;;;;;;11.10;10.00;;;16.40;99.90;;;;;;5014859;28;20485;-56
2022/09/08 02:19:04;;;;;;;11.23;10.13;;;16.40;99.90;;;;;;5015032;28;20457;-56
2022/09/08 02:21:31;;;;;;;13.13;9.83;;;16.40;99.90;;;;;;5014559;28;20449;-56
2022/09/08 02:23:59;;;;;;;11.20;10.13;;;16.40;99.90;;;;;;5014892;28;20454;-56
2022/09/08 02:26:30;;;;;;;11.50;10.40;;;16.30;99.90;;;;;;5014845;28;20462;-55
2022/09/08 02:28:57;;;;;;;11.90;10.40;;;16.30;99.90;;;;;;5014704;28;20470;-55
2022/09/08 02:31:26;;;;;;;11.03;9.90;;;16.30;99.90;;;;;;5014519;28;20452;-55
2022/09/08 02:33:54;;;;;;;10.23;9.30;;;16.30;99.90;;;;;;5014639;28;20472;-55
2022/09/08 02:36:22;;;;;;;10.50;9.40;;;16.30;99.90;;;;;;5014239;28;20834;-55
2022/09/08 02:38:51;;;;;;;11.90;10.70;;;16.30;99.90;;;;;;5014604;28;20457;-55
2022/09/08 02:41:18;;;;;;;13.10;11.90;;;16.30;99.90;;;;;;5014171;28;20476;-55
2022/09/08 02:43:45;;;;;;;14.20;12.73;;;16.20;99.90;;;;;;5014545;28;20498;-55
2022/09/08 02:46:13;;;;;;;12.10;11.00;;;16.30;99.90;;;;;;5014051;28;20477;-55
2022/09/08 02:48:41;;;;;;;13.07;11.50;;;16.20;99.90;;;;;;5013437;28;20481;-55
2022/09/08 02:51:09;;;;;;;16.70;15.00;;;16.30;99.90;;;;;;5014412;28;20448;-55
2022/09/08 02:53:39;;;;;;;14.33;12.93;;;16.30;99.90;;;;;;5014151;28;20453;-55
2022/09/08 02:56:07;;;;;;;14.30;12.80;;;16.30;99.90;;;;;;5013979;28;20851;-55
2022/09/08 02:58:34;;;;;;;14.53;13.03;;;16.30;99.90;;;;;;5014092;28;20450;-55
2022/09/08 03:01:02;;;;;;;14.33;13.03;;;16.30;99.90;;;;;;5014396;28;20456;-55
2022/09/08 03:03:29;;;;;;;13.43;11.50;;;16.30;99.90;;;;;;5014414;28;20472;-55
2022/09/08 03:05:56;;;;;;;12.33;11.03;;;16.30;99.90;;;;;;5013927;28;20854;-55
2022/09/08 03:08:25;;;;;;;12.20;10.93;;;16.20;99.90;;;;;;5014315;28;20816;-56
2022/09/08 03:10:53;;;;;;;12.57;11.23;;;16.20;99.90;;;;;;5013866;28;20933;-55
2022/09/08 03:13:21;;;;;;;12.07;10.67;;;16.20;99.90;;;;;;5013877;28;20452;-55
2022/09/08 03:15:49;;;;;;;14.30;12.60;;;16.20;99.90;;;;;;5013762;28;20489;-56
2022/09/08 03:18:16;;;;;;;13.83;12.20;;;16.20;99.90;;;;;;5014144;28;20527;-55
2022/09/08 03:20:44;;;;;;;14.20;12.83;;;16.20;99.90;;;;;;5014139;28;20815;-57
2022/09/08 03:23:18;;;;;;;13.53;12.13;;;16.20;99.90;;;;;;5013832;28;20958;-56
2022/09/08 03:25:46;;;;;;;15.30;13.00;;;16.20;99.90;;;;;;5014815;28;20485;-57
2022/09/08 03:28:19;;;;;;;13.67;12.37;;;16.20;99.90;;;;;;5013647;28;20521;-57
2022/09/08 03:30:47;;;;;;;15.07;13.43;;;16.20;99.90;;;;;;5013935;28;20448;-57
2022/09/08 03:33:14;;;;;;;16.17;14.47;;;16.20;99.90;;;;;;5014405;28;20930;-57
2022/09/08 03:35:41;;;;;;;16.10;14.00;;;16.30;99.90;;;;;;5013410;28;20481;-57
2022/09/08 03:38:08;;;;;;;17.20;15.37;;;16.30;99.90;;;;;;5013580;28;20446;-57
2022/09/08 03:40:35;;;;;;;18.37;16.40;;;16.30;99.90;;;;;;5013441;28;20938;-57
2022/09/08 03:43:02;;;;;;;16.90;15.20;;;16.30;99.90;;;;;;5013326;28;20532;-57
2022/09/08 03:45:31;;;;;;;18.53;16.47;;;16.40;99.90;;;;;;5032556;22;20472;-59
2022/09/08 03:47:58;;;;;;;17.50;15.67;;;16.40;99.90;;;;;;5073115;28;20423;-61
2022/09/08 03:50:25;;;;;;;21.23;18.80;;;16.40;99.90;;;;;;5072921;28;20443;-60
2022/09/08 03:52:52;;;;;;;21.73;19.40;;;16.40;99.90;;;;;;5073286;28;20813;-60
2022/09/08 03:55:20;;;;;;;23.70;21.30;;;16.40;99.90;;;;;;5073035;28;20439;-60
2022/09/08 03:57:47;;;;;;;25.57;22.13;;;16.40;99.90;;;;;;5072890;28;20458;-60
2022/09/08 04:00:15;;;;;;;23.70;20.40;;;16.40;99.90;;;;;;5072599;28;20442;-59
2022/09/08 04:02:44;;;;;;;24.50;21.03;;;16.40;99.90;;;;;;5072676;28;20991;-60
2022/09/08 04:05:12;;;;;;;22.50;20.10;;;16.40;99.90;;;;;;5073348;28;20930;-61
2022/09/08 04:10:15;;;;;;;23.43;20.50;;;16.30;99.90;;;;;;5091200;27;20575;-61
2022/09/08 04:12:42;;;;;;;23.43;19.93;;;16.30;99.90;;;;;;5090768;28;20431;-61
2022/09/08 04:15:10;;;;;;;22.60;18.40;;;16.30;99.90;;;;;;5090399;28;20947;-59
2022/09/08 04:17:37;;;;;;;23.10;20.63;;;16.30;99.90;;;;;;5090818;28;20823;-58
2022/09/08 04:20:05;;;;;;;22.40;19.70;;;16.40;99.90;;;;;;5090009;28;20478;-61
2022/09/08 04:22:33;;;;;;;22.47;20.07;;;16.40;99.90;;;;;;5090451;28;20454;-60
2022/09/08 04:25:01;;;;;;;21.20;18.87;;;16.40;99.90;;;;;;5090215;28;20443;-60
2022/09/08 04:27:29;;;;;;;24.73;20.20;;;16.40;99.90;;;;;;5089452;28;20520;-60
2022/09/08 04:29:56;;;;;;;25.37;20.30;;;16.40;99.90;;;;;;5080169;28;21001;-60
2022/09/08 04:32:24;;;;;;;21.03;18.83;;;16.40;99.90;;;;;;5069979;28;20969;-61
2022/09/08 04:34:51;;;;;;;22.63;20.23;;;16.40;99.90;;;;;;5074093;28;20473;-61
2022/09/08 04:37:20;;;;;;;25.90;22.13;;;16.40;99.90;;;;;;5078096;28;20467;-61
2022/09/08 04:39:50;;;;;;;25.10;21.50;;;16.40;99.90;;;;;;5074751;28;20449;-61
2022/09/08 04:42:17;;;;;;;25.90;22.53;;;16.40;99.90;;;;;;5090477;28;20434;-60
2022/09/08 04:44:47;;;;;;;28.63;22.40;;;16.40;99.90;;;;;;5089894;28;20972;-61
2022/09/08 04:47:14;;;;;;;28.93;22.77;;;16.30;99.90;;;;;;5079499;28;21002;-61
2022/09/08 04:49:41;;;;;;;25.63;22.50;;;16.30;99.90;;;;;;5069427;28;20553;-61
2022/09/08 04:52:08;;;;;;;25.30;22.60;;;16.30;99.90;;;;;;5069881;28;20446;-61
2022/09/08 04:54:36;;;;;;;28.03;21.70;;;16.20;99.90;;;;;;5069859;28;20451;-61
2022/09/08 04:57:03;;;;;;;31.23;24.20;;;16.20;99.90;;;;;;5069646;28;20485;-61
2022/09/08 04:59:30;;;;;;;24.00;21.40;;;16.20;99.90;;;;;;5069606;28;20450;-61
2022/09/08 05:01:59;;;;;;;26.47;23.40;;;16.30;99.90;;;;;;5069124;28;20455;-61
2022/09/08 05:04:26;;;;;;;27.20;23.50;;;16.30;99.90;;;;;;5070902;28;20816;-60
2022/09/08 05:06:54;;;;;;;25.57;22.87;;;16.30;99.90;;;;;;5082149;28;21000;-61
2022/09/08 05:09:22;;;;;;;25.43;22.73;;;16.40;99.90;;;;;;5087828;28;20477;-60
2022/09/08 05:11:50;;;;;;;25.73;21.60;;;16.40;99.90;;;;;;5072849;28;20454;-60
2022/09/08 05:14:17;;;;;;;28.20;22.77;;;16.40;99.90;;;;;;5070804;28;20788;-61
2022/09/08 05:16:44;;;;;;;24.67;22.07;;;16.50;99.90;;;;;;5068581;28;20470;-61
2022/09/08 05:19:13;;;;;;;25.27;22.53;;;16.50;99.90;;;;;;5069912;28;20436;-60
2022/09/08 05:21:41;;;;;;;24.27;21.77;;;16.60;99.90;;;;;;5062591;28;20446;-61
2022/09/08 05:24:08;;;;;;;24.83;21.40;;;16.60;99.90;;;;;;5075748;28;20454;-61
2022/09/08 05:26:35;;;;;;;25.13;22.13;;;16.70;99.90;;;;;;5075427;28;20479;-60
2022/09/08 05:29:04;;;;;;;23.80;21.30;;;16.70;99.90;;;;;;5075271;28;20483;-61
2022/09/08 05:31:33;;;;;;;25.73;22.93;;;16.70;99.90;;;;;;5075796;28;20451;-62
2022/09/08 05:34:01;;;;;;;26.03;22.60;;;16.80;99.90;;;;;;5076092;28;20471;-62
2022/09/08 05:36:32;;;;;;;24.00;21.50;;;16.80;99.90;;;;;;5076035;28;20906;-56
2022/09/08 05:39:00;;;;;;;27.23;22.83;;;16.80;99.90;;;;;;5072417;28;20720;-57
2022/09/08 05:41:28;;;;;;;27.53;23.43;;;16.80;99.90;;;;;;5056387;28;20480;-58
2022/09/08 05:43:56;;;;;;;26.20;23.37;;;16.80;99.90;;;;;;5055879;28;20456;-58
2022/09/08 05:46:25;;;;;;;24.83;22.10;;;16.80;99.90;;;;;;5055033;28;20554;-57
2022/09/08 05:48:53;;;;;;;30.70;21.50;;;16.80;99.90;;;;;;5058870;28;20540;-59
2022/09/08 05:51:22;;;;;;;25.07;21.53;;;16.80;99.90;;;;;;5056261;28;20448;-58
2022/09/08 05:53:51;;;;;;;24.67;21.13;;;16.90;99.90;;;;;;5055258;28;20964;-58
2022/09/08 05:56:19;;;;;;;24.27;21.33;;;16.90;99.90;;;;;;5055758;28;20471;-59
2022/09/08 05:58:51;;;;;;;23.37;19.83;;;16.90;99.90;;;;;;5074371;28;20854;-55
2022/09/08 06:01:19;;;;;;;22.83;20.57;;;16.90;99.90;;;;;;5062298;28;20440;-57
2022/09/08 06:03:46;;;;;;;23.50;20.30;;;16.90;99.90;;;;;;5081457;28;20530;-58
2022/09/08 06:06:14;;;;;;;22.60;20.50;;;16.90;99.90;;;;;;5065543;28;20567;-57
2022/09/08 06:08:42;;;;;;;27.50;19.90;;;16.90;99.90;;;;;;5077196;28;20534;-58
2022/09/08 06:11:11;;;;;;;23.77;21.37;;;17.00;99.90;;;;;;5058007;28;20508;-58
2022/09/08 06:13:39;;;;;;;24.43;21.83;;;17.00;99.90;;;;;;5055216;28;20451;-56
2022/09/08 06:16:08;;;;;;;22.60;20.47;;;17.00;99.90;;;;;;5054767;28;20472;-58
2022/09/08 06:18:36;;;;;;;22.73;20.40;;;17.00;99.90;;;;;;5055176;28;20447;-57
2022/09/08 06:21:07;;;;;;;22.63;19.60;;;17.00;99.90;;;;;;5054583;28;20447;-58
2022/09/08 06:23:34;;;;;;;23.97;21.43;;;17.00;99.90;;;;;;5054687;28;20449;-57
2022/09/08 06:26:26;;;;;;;22.80;20.17;;;17.10;99.90;;;;;;5055015;28;20464;-56
2022/09/08 06:28:59;;;;;;;21.47;19.40;;;17.10;99.90;;;;;;5055367;28;20472;-55
2022/09/08 06:31:31;;;;;;;21.10;18.90;;;17.10;99.90;;;;;;5055060;28;20440;-55
2022/09/08 06:34:01;;;;;;;22.90;20.60;;;17.20;99.90;;;;;;5055877;28;20424;-58
2022/09/08 06:36:37;;;;;;;21.63;19.40;;;17.20;99.90;;;;;;5056577;28;20460;-56
2022/09/08 06:39:11;;;;;;;23.40;19.00;;;17.30;99.90;;;;;;5057099;28;20874;-55
2022/09/08 06:41:46;;;;;;;20.30;18.40;;;17.30;99.90;;;;;;5056075;28;20429;-55
2022/09/08 06:44:20;;;;;;;22.60;20.30;;;17.30;99.90;;;;;;5060270;28;20431;-56
2022/09/08 06:46:48;;;;;;;20.77;18.77;;;17.40;99.90;;;;;;5056093;28;21010;-56
2022/09/08 06:49:16;;;;;;;21.43;19.23;;;17.40;99.90;;;;;;5056628;28;20475;-57
2022/09/08 06:51:50;;;;;;;22.70;20.50;;;17.40;99.90;;;;;;5062508;28;20935;-58
2022/09/08 06:54:35;;;;;;;22.53;20.30;;;17.50;99.90;;;;;;5072301;28;20457;-57
2022/09/08 06:57:12;;;;;;;25.07;20.63;;;17.60;99.90;;;;;;5078072;28;20469;-57
2022/09/08 06:59:51;;;;;;;24.20;21.70;;;17.70;99.90;;;;;;5077653;28;20933;-57
2022/09/08 07:02:36;;;;;;;23.23;20.90;;;17.80;99.90;;;;;;5066329;28;20443;-56
2022/09/08 07:05:10;;;;;;;21.80;19.67;;;17.90;99.90;;;;;;5062983;28;20495;-57
2022/09/08 07:07:47;;;;;;;23.27;20.77;;;18.00;99.90;;;;;;5067094;28;20450;-56
2022/09/08 07:10:21;;;;;;;24.93;20.23;;;18.10;99.90;;;;;;5058168;28;20472;-57
2022/09/08 07:12:58;;;;;;;23.90;21.10;;;18.10;99.90;;;;;;5067673;28;20436;-57
2022/09/08 07:15:39;;;;;;;25.43;21.53;;;18.10;99.90;;;;;;5070847;28;20442;-58
2022/09/08 07:41:47;;;;;;;22.47;20.10;;;18.20;99.90;;;;;;5074231;28;20400;-58
2022/09/08 07:44:16;;;;;;;22.70;20.30;;;18.30;99.90;;;;;;5074382;28;20419;-56
2022/09/08 07:47:07;;;;;;;23.80;21.33;;;18.50;99.90;;;;;;5074156;28;20466;-57
2022/09/08 07:49:43;;;;;;;24.03;21.53;;;18.60;99.90;;;;;;5074488;28;20463;-57
2022/09/08 07:52:20;;;;;;;24.67;21.77;;;18.70;99.90;;;;;;5074629;28;20791;-59
2022/09/08 07:54:53;;;;;;;23.33;20.93;;;18.80;99.90;;;;;;5073599;28;20898;-57
2022/09/08 07:57:30;;;;;;;22.47;20.03;;;18.90;99.90;;;;;;5073927;28;20494;-58
2022/09/08 08:00:02;;;;;;;21.93;19.77;;;18.90;99.90;;;;;;5073907;28;20447;-56
2022/09/08 08:03:07;;;;;;;25.70;21.50;;;19.00;99.90;;;;;;5073542;28;20534;-56
2022/09/08 08:05:41;;;;;;;23.33;20.97;;;19.00;99.90;;;;;;5073347;28;20463;-56
2022/09/08 08:08:16;;;;;;;23.73;21.23;;;19.00;99.90;;;;;;5073787;28;20451;-57
2022/09/08 08:10:50;;;;;;;25.37;21.40;;;19.10;99.90;;;;;;5073919;28;20477;-58
2022/09/08 08:13:27;;;;;;;22.93;20.60;;;19.10;99.90;;;;;;5074445;28;20432;-58
2022/09/08 08:16:00;;;;;;;21.47;19.37;;;19.10;99.90;;;;;;5073671;28;20473;-57
2022/09/08 08:18:38;;;;;;;22.17;19.70;;;19.20;99.90;;;;;;5073904;28;20427;-56
2022/09/08 08:24:11;;;;;;;23.17;20.67;;;19.30;99.90;;;;;;5788068;22;20500;-56
2022/09/08 08:26:45;;;;;;;22.57;19.43;;;19.40;99.90;;;;;;5012880;28;20446;-57
2022/09/08 08:29:39;;;;;;;22.97;19.60;;;19.40;99.90;;;;;;5013089;28;20871;-56
2022/09/08 08:32:11;;;;;;;22.10;19.90;;;19.30;99.90;;;;;;5013611;28;20449;-55
2022/09/08 08:34:46;;;;;;;21.27;19.10;;;19.30;99.90;;;;;;5013070;28;20523;-56
2022/09/08 08:37:18;;;;;;;17.97;16.27;;;19.30;99.90;;;;;;5012881;28;20849;-56
2022/09/08 08:39:47;;;;;;;18.60;16.50;;;19.30;99.90;;;;;;5013679;28;20430;-56
2022/09/08 08:42:32;;;;;;;18.47;16.40;;;19.30;99.90;;;;;;5013289;28;20453;-56
2022/09/08 08:45:16;;;;;;;18.63;14.77;;;19.40;99.90;;;;;;5012659;28;20520;-55
2022/09/08 08:48:03;;;;;;;17.00;15.40;;;19.40;99.90;;;;;;5012900;28;20521;-57
2022/09/08 08:51:04;;;;;;;16.77;15.27;;;19.40;99.90;;;;;;5013861;28;20469;-57
2022/09/08 08:54:01;;;;;;;17.50;15.03;;;19.50;99.90;;;;;;5001023;28;20484;-55
2022/09/08 08:56:34;;;;;;;15.57;14.03;;;19.50;99.90;;;;;;5016687;28;20426;-54
2022/09/08 08:59:20;;;;;;;19.63;16.33;;;19.60;99.90;;;;;;5016710;28;20422;-54
2022/09/08 09:02:19;;;;;;;21.23;15.53;;;19.70;99.90;;;;;;5016290;28;20438;-56
2022/09/08 09:05:21;;;;;;;17.23;15.43;;;19.70;99.90;;;;;;5000981;28;20565;-55
2022/09/08 09:08:11;;;;;;;16.50;14.90;;;19.80;99.90;;;;;;5016258;28;20441;-56
2022/09/08 09:10:50;;;;;;;18.30;16.40;;;19.80;99.90;;;;;;5016596;28;20561;-56
2022/09/08 09:13:34;;;;;;;16.57;14.83;;;19.80;99.90;;;;;;5015951;28;20520;-56
2022/09/08 09:16:21;;;;;;;15.30;13.83;;;19.80;99.90;;;;;;5016361;28;20484;-55
2022/09/08 09:19:26;;;;;;;17.07;15.30;;;19.80;99.90;;;;;;5013714;28;20466;-56
2022/09/08 09:22:01;;;;;;;15.97;14.47;;;19.80;99.90;;;;;;5016193;28;20441;-55
2022/09/08 09:24:40;;;;;;;15.60;14.00;;;19.90;99.90;;;;;;5015907;28;20469;-55
2022/09/08 09:27:17;;;;;;;15.50;13.90;;;19.90;99.90;;;;;;5015634;28;20454;-56
2022/09/08 09:29:44;;;;;;;15.20;13.83;;;19.90;99.90;;;;;;5015666;28;20479;-55
2022/09/08 09:32:30;;;;;;;12.07;10.87;;;20.00;99.90;;;;;;5015283;28;20525;-55
2022/09/08 09:35:20;;;;;;;11.53;10.33;;;20.00;99.90;;;;;;5015814;28;20465;-57
2022/09/08 09:38:05;;;;;;;12.33;11.30;;;19.90;99.90;;;;;;5015804;28;20426;-56
2022/09/08 09:40:47;;;;;;;11.63;10.60;;;19.80;99.90;;;;;;5015851;28;20427;-55
2022/09/08 09:43:36;;;;;;;10.40;9.50;;;19.80;99.90;;;;;;5015665;28;20422;-56
2022/09/08 09:46:19;;;;;;;10.90;10.00;;;19.80;99.90;;;;;;5012875;28;20462;-55
2022/09/08 09:49:02;;;;;;;12.13;10.70;;;19.70;99.90;;;;;;5015212;28;20441;-55
2022/09/08 09:51:37;;;;;;;12.03;10.33;;;19.80;99.90;;;;;;5015174;28;20468;-56
2022/09/08 09:54:25;;;;;;;11.17;10.17;;;19.80;99.90;;;;;;5014821;28;20484;-55
2022/09/08 09:57:35;;;;;;;13.10;11.67;;;19.90;99.90;;;;;;5015515;28;20434;-56
2022/09/08 10:00:12;;;;;;;11.63;10.63;;;19.80;99.90;;;;;;5014764;28;20924;-56
2022/09/08 10:03:17;;;;;;;12.10;10.90;;;19.70;99.90;;;;;;5014841;28;20901;-56
2022/09/08 10:06:21;;;;;;;15.17;12.40;;;19.40;99.90;;;;;;5012375;28;20487;-55
2022/09/08 10:09:27;;;;;;;15.50;11.63;;;19.20;99.90;;;;;;5014886;28;20454;-57
2022/09/08 10:12:34;;;;;;;13.10;11.00;;;19.00;99.90;;;;;;5015407;28;20433;-57
2022/09/08 10:15:45;;;;;;;11.43;10.33;;;18.80;99.90;;;;;;5015620;28;20573;-56
2022/09/08 10:18:53;;;;;;;12.13;10.80;;;18.60;99.90;;;;;;5015897;28;20446;-56
2022/09/08 10:21:48;;;;;;;10.77;9.67;;;18.50;99.90;;;;;;5015182;28;20427;-55
2022/09/08 10:24:32;;;;;;;9.93;9.03;;;18.30;99.90;;;;;;5013337;28;20499;-57
2022/09/08 10:27:43;;;;;;;10.87;9.83;;;18.20;99.90;;;;;;5015544;28;20491;-56
2022/09/08 10:30:20;;;;;;;11.60;9.53;;;18.10;99.90;;;;;;5015849;28;20883;-57
2022/09/08 10:33:28;;;;;;;10.40;9.10;;;18.00;99.90;;;;;;5015490;28;20462;-56
2022/09/08 10:36:02;;;;;;;12.53;11.23;;;17.90;99.90;;;;;;5014841;28;20493;-57
2022/09/08 10:38:57;;;;;;;11.10;10.10;;;17.80;99.90;;;;;;5014754;28;20421;-57
2022/09/08 10:42:02;;;;;;;13.50;11.70;;;17.70;99.90;;;;;;5014846;28;20466;-57
2022/09/08 10:44:50;;;;;;;13.70;12.30;;;17.70;99.90;;;;;;5014830;28;20462;-56
2022/09/08 10:47:44;;;;;;;13.83;12.47;;;17.70;99.90;;;;;;5014581;28;20500;-55
2022/09/08 10:50:20;;;;;;;15.70;13.70;;;17.60;99.90;;;;;;5014279;28;20516;-57
2022/09/08 10:53:33;;;;;;;14.87;12.90;;;17.60;99.90;;;;;;5014431;28;20484;-57
2022/09/08 10:56:12;;;;;;;13.13;11.60;;;17.50;99.90;;;;;;4994277;28;20826;-57
2022/09/08 10:59:13;;;;;;;13.33;11.87;;;17.50;99.90;;;;;;4995262;28;20481;-57
2022/09/08 11:02:13;;;;;;;11.73;10.63;;;17.40;99.90;;;;;;4994104;28;20426;-55
2022/09/08 11:05:27;;;;;;;12.67;11.40;;;17.30;99.90;;;;;;4993880;28;20478;-55
2022/09/08 11:08:42;;;;;;;14.90;12.63;;;17.30;99.90;;;;;;4993696;28;20778;-52
2022/09/08 11:11:36;;;;;;;15.67;14.17;;;17.30;99.90;;;;;;4993910;28;20470;-56
2022/09/08 11:14:06;;;;;;;14.40;13.00;;;17.30;99.90;;;;;;4993965;28;20510;-56
2022/09/08 11:16:59;;;;;;;17.20;14.33;;;17.30;99.90;;;;;;4993841;28;20462;-56
2022/09/08 11:19:39;;;;;;;16.10;14.60;;;17.30;99.90;;;;;;4993749;28;20462;-56
2022/09/08 11:22:21;;;;;;;15.47;14.07;;;17.30;99.90;;;;;;4993926;28;20890;-55
2022/09/08 11:25:00;;;;;;;15.43;13.80;;;17.40;99.90;;;;;;4994073;28;20496;-57
2022/09/08 11:30:11;;;;;;;18.30;16.10;;;17.30;99.90;;;;;;5033891;23;20493;-55
2022/09/08 11:32:47;;;;;;;17.50;15.63;;;17.40;99.90;;;;;;5013475;28;20470;-58
2022/09/08 11:35:30;;;;;;;18.10;16.30;;;17.40;99.90;;;;;;5013842;28;20432;-55
2022/09/08 11:38:14;;;;;;;17.63;15.90;;;17.50;99.90;;;;;;5013783;28;20465;-58
2022/09/08 11:41:10;;;;;;;17.90;16.00;;;17.40;99.90;;;;;;5013463;28;20469;-56
2022/09/08 11:43:45;;;;;;;15.33;13.83;;;17.40;99.90;;;;;;5012822;28;20431;-56
2022/09/08 11:46:27;;;;;;;16.70;15.03;;;17.40;99.90;;;;;;5010549;28;21048;-55
2022/09/08 11:49:31;;;;;;;16.30;14.80;;;17.30;99.90;;;;;;5014109;28;20465;-55
2022/09/08 11:52:21;;;;;;;17.37;15.20;;;17.20;99.90;;;;;;5013987;28;20472;-55
2022/09/08 11:55:03;;;;;;;15.40;13.43;;;17.20;99.90;;;;;;5014478;28;20946;-56
2022/09/08 11:57:46;;;;;;;13.20;11.90;;;17.20;99.90;;;;;;5014112;28;20453;-56
2022/09/08 12:00:34;;;;;;;15.63;12.37;;;17.10;99.90;;;;;;5014140;28;20430;-54
2022/09/08 12:03:18;;;;;;;13.23;11.93;;;17.10;99.90;;;;;;5014264;28;20865;-55
2022/09/08 12:06:21;;;;;;;14.87;13.10;;;17.20;99.90;;;;;;5014266;28;20442;-55
2022/09/08 12:09:06;;;;;;;14.13;12.40;;;17.20;99.90;;;;;;5013967;28;20552;-55
2022/09/08 12:12:03;;;;;;;13.47;12.07;;;17.20;99.90;;;;;;5013743;28;20917;-55
2022/09/08 12:14:39;;;;;;;12.10;10.90;;;17.20;99.90;;;;;;5000666;28;20446;-55
2022/09/08 12:17:13;;;;;;;11.20;10.10;;;17.20;99.90;;;;;;5014174;28;20450;-56
2022/09/08 12:20:01;;;;;;;11.23;10.13;;;17.20;99.90;;;;;;5014513;28;20540;-58
2022/09/08 12:23:02;;;;;;;11.53;10.37;;;17.10;99.90;;;;;;5014611;28;20480;-55
2022/09/08 12:25:57;;;;;;;10.57;8.67;;;17.10;99.90;;;;;;5010729;28;20976;-56
2022/09/08 12:28:41;;;;;;;10.67;9.60;;;17.00;99.90;;;;;;5007183;28;20528;-56
2022/09/08 12:31:29;;;;;;;10.13;9.10;;;16.90;99.90;;;;;;5016702;28;20491;-56
2022/09/08 12:34:32;;;;;;;8.20;7.27;;;16.90;99.90;;;;;;5017941;28;20976;-57
2022/09/08 12:37:12;;;;;;;9.20;8.40;;;16.90;99.90;;;;;;5017586;28;20452;-56
2022/09/08 12:40:10;;;;;;;9.80;8.80;;;16.80;99.90;;;;;;5017462;28;20953;-55
2022/09/08 12:43:02;;;;;;;9.10;8.30;;;16.80;99.90;;;;;;5017976;28;20424;-56
2022/09/08 12:45:44;;;;;;;11.20;8.50;;;16.80;99.90;;;;;;5014372;28;20508;-55
2022/09/08 12:48:24;;;;;;;9.07;8.17;;;16.80;99.90;;;;;;5017571;28;20466;-56
2022/09/08 12:50:55;;;;;;;9.53;8.73;;;16.80;99.90;;;;;;5018031;28;20477;-56
2022/09/08 12:54:00;;;;;;;8.40;7.57;;;16.80;99.90;;;;;;5018249;28;20775;-56
2022/09/08 12:56:41;;;;;;;9.60;8.60;;;16.80;99.90;;;;;;4986164;28;20528;-57
2022/09/08 12:59:25;;;;;;;12.63;9.10;;;16.70;99.90;;;;;;5018411;28;20497;-57
2022/09/08 13:01:58;;;;;;;11.37;10.17;;;16.70;99.90;;;;;;5018011;28;20418;-56
2022/09/08 13:04:43;;;;;;;10.17;9.30;;;16.70;99.90;;;;;;5017462;28;20437;-56
2022/09/08 13:07:21;;;;;;;11.23;10.03;;;16.70;99.90;;;;;;5017514;28;20426;-54
2022/09/08 13:10:03;;;;;;;10.23;8.90;;;16.70;99.90;;;;;;5016960;28;20535;-55
2022/09/08 13:12:57;;;;;;;14.10;9.77;;;16.70;99.90;;;;;;5017021;28;20581;-57
2022/09/08 13:15:30;;;;;;;10.63;9.63;;;16.80;99.90;;;;;;5004024;28;20481;-56
2022/09/08 13:18:11;;;;;;;11.10;10.00;;;16.80;99.90;;;;;;5017382;28;20505;-56
2022/09/08 13:20:40;;;;;;;11.07;10.07;;;16.80;99.90;;;;;;5018319;28;20426;-56
2022/09/08 13:23:34;;;;;;;9.87;8.97;;;16.80;99.90;;;;;;5018637;28;20492;-53
2022/09/08 13:26:12;;;;;;;10.77;9.63;;;16.90;99.90;;;;;;5019940;28;20517;-56
2022/09/08 13:29:02;;;;;;;10.47;9.27;;;16.90;99.90;;;;;;5017875;28;20509;-59
2022/09/08 13:31:44;;;;;;;12.70;9.90;;;16.90;99.90;;;;;;5018204;28;20470;-57
2022/09/08 13:34:32;;;;;;;9.47;8.67;;;16.90;99.90;;;;;;5017397;28;20512;-57
2022/09/08 13:37:13;;;;;;;8.00;7.30;;;16.90;99.90;;;;;;5016496;28;20446;-58
2022/09/08 13:40:05;;;;;;;7.97;6.90;;;16.80;99.90;;;;;;5017268;28;20454;-57
2022/09/08 13:43:00;;;;;;;9.10;8.20;;;16.80;99.90;;;;;;5016804;28;20493;-56
2022/09/08 13:45:35;;;;;;;8.90;8.10;;;16.80;99.90;;;;;;5013247;28;20454;-55
2022/09/08 13:48:31;;;;;;;8.50;7.70;;;16.80;99.90;;;;;;5016749;28;20501;-56
2022/09/08 13:51:23;;;;;;;6.77;6.07;;;16.80;99.90;;;;;;5016864;28;20470;-57
2022/09/08 13:54:16;;;;;;;7.20;6.50;;;16.70;99.90;;;;;;5017099;28;20462;-56
2022/09/08 13:57:09;;;;;;;9.60;7.33;;;16.60;99.90;;;;;;5016458;28;20500;-57